createdAt,value
2017-05-20T00:00:49.705Z,25.24
2017-05-20T00:01:49.666Z,25.18
2017-05-20T00:02:49.674Z,25.21
2017-05-20T00:03:49.058Z,25.21
2017-05-20T00:04:49.375Z,25.1
2017-05-20T00:05:49.695Z,25.13
2017-05-20T00:06:49.083Z,25.21
2017-05-20T00:07:49.715Z,25.18
2017-05-20T00:08:49.819Z,25.21
2017-05-20T00:09:49.731Z,25.18
2017-05-20T00:10:49.787Z,25.17
2017-05-20T00:11:49.432Z,25.17
2017-05-20T00:12:49.754Z,25.17
2017-05-20T00:13:49.452Z,25.13
2017-05-20T00:14:49.772Z,25.2
2017-05-20T00:15:49.463Z,25.17
2017-05-20T00:16:49.784Z,25.23
2017-05-20T00:17:49.795Z,25.06
2017-05-20T00:18:49.801Z,25.06
2017-05-20T00:19:49.503Z,25.15
2017-05-20T00:20:49.510Z,25.1
2017-05-20T00:21:49.825Z,25.15
2017-05-20T00:22:49.261Z,25.15
2017-05-20T00:23:49.893Z,25.08
2017-05-20T00:24:49.900Z,25.05
2017-05-20T00:25:49.856Z,25.08
2017-05-20T00:26:49.867Z,25.1
2017-05-20T00:27:49.875Z,25.08
2017-05-20T00:28:49.942Z,25.09
2017-05-20T00:29:49.891Z,25
2017-05-20T00:30:49.279Z,25.03
2017-05-20T00:31:49.289Z,25
2017-05-20T00:32:49.602Z,25.02
2017-05-20T00:33:49.973Z,25
2017-05-20T00:34:49.932Z,25
2017-05-20T00:35:49.989Z,25.03
2017-05-20T00:36:49.991Z,25
2017-05-20T00:37:49.953Z,25
2017-05-20T00:38:49.965Z,25.05
2017-05-20T00:39:49.660Z,25
2017-05-20T00:40:49.977Z,24.99
2017-05-20T00:41:49.985Z,25.05
2017-05-20T00:42:49.992Z,24.96
2017-05-20T00:43:49.694Z,24.95
2017-05-20T00:44:49.703Z,25
2017-05-20T00:45:50.018Z,24.95
2017-05-20T00:46:49.765Z,24.9
2017-05-20T00:47:50.037Z,24.99
2017-05-20T00:48:50.092Z,24.98
2017-05-20T00:49:50.102Z,25
2017-05-20T00:50:50.108Z,24.98
2017-05-20T00:51:49.757Z,24.96
2017-05-20T00:52:50.077Z,24.9
2017-05-20T00:53:49.775Z,24.93
2017-05-20T00:54:50.144Z,24.87
2017-05-20T00:55:50.102Z,24.84
2017-05-20T00:56:50.155Z,24.95
2017-05-20T00:57:49.805Z,24.87
2017-05-20T00:58:50.128Z,24.88
2017-05-20T00:59:49.818Z,24.87
2017-05-20T01:00:50.188Z,24.9
2017-05-20T01:01:49.838Z,24.84
2017-05-20T01:02:50.202Z,24.91
2017-05-20T01:03:50.169Z,24.81
2017-05-20T01:04:50.172Z,24.87
2017-05-20T01:05:49.866Z,24.84
2017-05-20T01:06:49.877Z,24.81
2017-05-20T01:07:50.191Z,24.9
2017-05-20T01:08:50.253Z,24.83
2017-05-20T01:09:50.263Z,24.83
2017-05-20T01:10:50.217Z,24.88
2017-05-20T01:11:50.225Z,24.83
2017-05-20T01:12:50.285Z,24.83
2017-05-20T01:13:49.933Z,24.71
2017-05-20T01:14:50.254Z,24.71
2017-05-20T01:15:49.997Z,24.77
2017-05-20T01:16:50.269Z,24.77
2017-05-20T01:17:50.325Z,24.73
2017-05-20T01:18:50.288Z,24.73
2017-05-20T01:19:49.669Z,24.67
2017-05-20T01:20:50.295Z,24.71
2017-05-20T01:21:50.303Z,24.8
2017-05-20T01:22:50.314Z,24.71
2017-05-20T01:23:50.014Z,24.71
2017-05-20T01:24:50.069Z,24.68
2017-05-20T01:25:50.400Z,24.76
2017-05-20T01:26:50.035Z,24.71
2017-05-20T01:27:50.097Z,24.76
2017-05-20T01:28:50.052Z,24.69
2017-05-20T01:29:50.365Z,24.64
2017-05-20T01:30:50.424Z,24.65
2017-05-20T01:31:50.122Z,24.67
2017-05-20T01:32:50.081Z,24.62
2017-05-20T01:33:50.404Z,24.68
2017-05-20T01:34:50.408Z,24.64
2017-05-20T01:35:50.469Z,24.68
2017-05-20T01:36:50.485Z,24.68
2017-05-20T01:37:50.432Z,24.64
2017-05-20T01:38:50.452Z,24.65
2017-05-20T01:39:50.448Z,24.64
2017-05-20T01:40:50.506Z,24.62
2017-05-20T01:41:50.151Z,24.57
2017-05-20T01:42:49.856Z,24.61
2017-05-20T01:43:50.170Z,24.65
2017-05-20T01:44:50.488Z,24.73
2017-05-20T01:45:50.494Z,24.68
2017-05-20T01:46:49.881Z,24.65
2017-05-20T01:47:50.203Z,24.67
2017-05-20T01:48:50.211Z,24.69
2017-05-20T01:49:50.527Z,24.67
2017-05-20T01:50:50.543Z,24.73
2017-05-20T01:51:50.542Z,24.62
2017-05-20T01:52:50.552Z,24.77
2017-05-20T01:53:50.661Z,24.73
2017-05-20T01:54:49.946Z,24.67
2017-05-20T01:55:50.262Z,24.68
2017-05-20T01:56:50.583Z,24.68
2017-05-20T01:57:50.278Z,24.71
2017-05-20T01:58:50.702Z,24.71
2017-05-20T01:59:50.604Z,24.78
2017-05-20T02:00:50.617Z,24.83
2017-05-20T02:01:50.618Z,24.8
2017-05-20T02:02:50.728Z,24.77
2017-05-20T02:03:50.641Z,24.68
2017-05-20T02:04:50.646Z,24.78
2017-05-20T02:05:50.657Z,24.83
2017-05-20T02:06:50.660Z,24.81
2017-05-20T02:07:50.673Z,24.78
2017-05-20T02:08:50.678Z,24.8
2017-05-20T02:09:50.682Z,24.77
2017-05-20T02:10:50.696Z,24.81
2017-05-20T02:11:50.699Z,24.69
2017-05-20T02:12:50.762Z,24.73
2017-05-20T02:13:50.460Z,24.8
2017-05-20T02:14:50.412Z,24.71
2017-05-20T02:15:50.781Z,24.69
2017-05-20T02:16:50.741Z,24.71
2017-05-20T02:17:50.438Z,24.73
2017-05-20T02:18:50.755Z,24.71
2017-05-20T02:19:50.449Z,24.78
2017-05-20T02:20:50.769Z,24.78
2017-05-20T02:21:50.775Z,24.71
2017-05-20T02:22:50.540Z,24.71
2017-05-20T02:23:50.846Z,24.71
2017-05-20T02:24:50.490Z,24.73
2017-05-20T02:25:50.810Z,24.69
2017-05-20T02:26:50.914Z,24.77
2017-05-20T02:27:50.827Z,24.73
2017-05-20T02:28:50.938Z,24.8
2017-05-20T02:29:50.836Z,24.77
2017-05-20T02:30:50.846Z,24.8
2017-05-20T02:31:50.546Z,24.73
2017-05-20T02:32:50.605Z,24.77
2017-05-20T02:33:50.868Z,24.73
2017-05-20T02:34:50.879Z,24.71
2017-05-20T02:35:50.934Z,24.69
2017-05-20T02:36:50.582Z,24.8
2017-05-20T02:37:50.907Z,24.69
2017-05-20T02:38:50.959Z,24.77
2017-05-20T02:39:50.917Z,24.65
2017-05-20T02:40:50.926Z,24.68
2017-05-20T02:41:50.931Z,24.68
2017-05-20T02:42:50.679Z,24.73
2017-05-20T02:43:50.688Z,24.62
2017-05-20T02:44:50.648Z,24.69
2017-05-20T02:45:50.655Z,24.65
2017-05-20T02:46:50.972Z,24.65
2017-05-20T02:47:50.361Z,24.68
2017-05-20T02:48:50.678Z,24.62
2017-05-20T02:49:50.689Z,24.57
2017-05-20T02:50:51.052Z,24.6
2017-05-20T02:51:51.010Z,24.65
2017-05-20T02:52:51.019Z,24.6
2017-05-20T02:53:51.026Z,24.55
2017-05-20T02:54:51.037Z,24.6
2017-05-20T02:55:51.043Z,24.64
2017-05-20T02:56:51.052Z,24.6
2017-05-20T02:57:51.060Z,24.55
2017-05-20T02:58:50.753Z,24.55
2017-05-20T02:59:51.078Z,24.57
2017-05-20T03:00:51.085Z,24.58
2017-05-20T03:01:51.089Z,24.6
2017-05-20T03:02:51.205Z,24.58
2017-05-20T03:03:51.107Z,24.53
2017-05-20T03:04:51.110Z,24.55
2017-05-20T03:05:51.120Z,24.55
2017-05-20T03:06:50.819Z,24.53
2017-05-20T03:07:51.138Z,24.53
2017-05-20T03:08:50.621Z,24.53
2017-05-20T03:09:50.888Z,24.58
2017-05-20T03:10:50.894Z,24.53
2017-05-20T03:11:50.857Z,24.55
2017-05-20T03:12:50.874Z,24.57
2017-05-20T03:13:51.184Z,24.6
2017-05-20T03:14:50.875Z,24.5
2017-05-20T03:15:50.934Z,24.49
2017-05-20T03:16:50.894Z,24.57
2017-05-20T03:17:50.906Z,24.55
2017-05-20T03:18:50.912Z,24.57
2017-05-20T03:19:50.920Z,24.49
2017-05-20T03:20:51.237Z,24.57
2017-05-20T03:21:50.984Z,24.49
2017-05-20T03:22:50.680Z,24.5
2017-05-20T03:23:51.267Z,24.49
2017-05-20T03:24:51.005Z,24.49
2017-05-20T03:25:51.272Z,24.52
2017-05-20T03:26:51.020Z,24.47
2017-05-20T03:27:51.296Z,24.46
2017-05-20T03:28:50.989Z,24.52
2017-05-20T03:29:51.000Z,24.52
2017-05-20T03:30:51.002Z,24.55
2017-05-20T03:31:51.372Z,24.53
2017-05-20T03:32:51.333Z,24.57
2017-05-20T03:33:51.024Z,24.46
2017-05-20T03:34:51.083Z,24.52
2017-05-20T03:35:51.398Z,24.49
2017-05-20T03:36:51.049Z,24.55
2017-05-20T03:37:51.056Z,24.62
2017-05-20T03:38:51.064Z,24.53
2017-05-20T03:39:51.073Z,24.5
2017-05-20T03:40:51.079Z,24.53
2017-05-20T03:41:51.448Z,24.5
2017-05-20T03:42:51.405Z,24.47
2017-05-20T03:43:51.414Z,24.45
2017-05-20T03:44:51.720Z,24.49
2017-05-20T03:45:51.175Z,24.55
2017-05-20T03:46:51.493Z,24.55
2017-05-20T03:47:51.184Z,24.58
2017-05-20T03:48:51.453Z,24.49
2017-05-20T03:49:51.151Z,24.5
2017-05-20T03:50:51.515Z,24.47
2017-05-20T03:51:51.474Z,24.49
2017-05-20T03:52:51.484Z,24.6
2017-05-20T03:53:51.541Z,24.43
2017-05-20T03:54:51.498Z,24.4
2017-05-20T03:55:51.506Z,24.43
2017-05-20T03:56:51.205Z,24.47
2017-05-20T03:57:51.526Z,24.47
2017-05-20T03:58:51.270Z,24.49
2017-05-20T03:59:51.588Z,24.46
2017-05-20T04:00:51.598Z,24.58
2017-05-20T04:01:51.553Z,24.5
2017-05-20T04:02:51.561Z,24.52
2017-05-20T04:03:51.307Z,24.6
2017-05-20T04:04:51.264Z,24.55
2017-05-20T04:05:51.632Z,24.6
2017-05-20T04:06:51.283Z,24.58
2017-05-20T04:07:51.603Z,24.55
2017-05-20T04:08:51.675Z,24.53
2017-05-20T04:09:51.308Z,24.55
2017-05-20T04:10:51.313Z,24.58
2017-05-20T04:11:51.320Z,24.67
2017-05-20T04:12:51.651Z,24.68
2017-05-20T04:13:51.647Z,24.61
2017-05-20T04:14:51.345Z,24.6
2017-05-20T04:15:51.353Z,24.55
2017-05-20T04:16:51.406Z,24.57
2017-05-20T04:17:51.367Z,24.52
2017-05-20T04:18:51.377Z,24.58
2017-05-20T04:19:51.436Z,24.57
2017-05-20T04:20:51.386Z,24.58
2017-05-20T04:21:51.708Z,24.68
2017-05-20T04:22:51.761Z,24.58
2017-05-20T04:23:51.412Z,24.57
2017-05-20T04:24:51.421Z,24.61
2017-05-20T04:25:51.741Z,24.55
2017-05-20T04:26:51.747Z,24.61
2017-05-20T04:27:51.756Z,24.52
2017-05-20T04:28:51.451Z,24.6
2017-05-20T04:29:51.776Z,24.68
2017-05-20T04:30:51.829Z,24.73
2017-05-20T04:31:51.161Z,24.76
2017-05-20T04:32:51.482Z,24.76
2017-05-20T04:33:51.181Z,24.68
2017-05-20T04:34:51.241Z,24.71
2017-05-20T04:35:51.191Z,24.71
2017-05-20T04:36:51.201Z,24.77
2017-05-20T04:37:51.524Z,24.68
2017-05-20T04:38:51.529Z,24.84
2017-05-20T04:39:51.535Z,24.84
2017-05-20T04:40:51.283Z,24.83
2017-05-20T04:41:51.553Z,24.83
2017-05-20T04:42:51.247Z,24.88
2017-05-20T04:43:51.259Z,24.8
2017-05-20T04:44:51.884Z,24.71
2017-05-20T04:45:51.893Z,24.76
2017-05-20T04:46:52.002Z,24.73
2017-05-20T04:47:51.927Z,24.77
2017-05-20T04:48:51.657Z,24.62
2017-05-20T04:49:51.303Z,24.76
2017-05-20T04:50:51.625Z,24.71
2017-05-20T04:51:51.944Z,24.71
2017-05-20T04:52:51.950Z,24.62
2017-05-20T04:53:51.644Z,24.68
2017-05-20T04:54:51.964Z,24.67
2017-05-20T04:55:51.668Z,24.69
2017-05-20T04:56:51.675Z,24.6
2017-05-20T04:57:51.682Z,24.65
2017-05-20T04:58:51.996Z,24.65
2017-05-20T04:59:52.008Z,24.61
2017-05-20T05:00:51.390Z,24.68
2017-05-20T05:01:51.709Z,24.67
2017-05-20T05:02:51.719Z,24.71
2017-05-20T05:03:51.778Z,24.67
2017-05-20T05:04:51.733Z,24.73
2017-05-20T05:05:51.429Z,24.81
2017-05-20T05:06:52.063Z,24.73
2017-05-20T05:07:52.076Z,24.73
2017-05-20T05:08:51.766Z,24.69
2017-05-20T05:09:51.461Z,24.73
2017-05-20T05:10:52.088Z,24.73
2017-05-20T05:11:52.099Z,24.77
2017-05-20T05:12:51.846Z,24.84
2017-05-20T05:13:52.122Z,24.85
2017-05-20T05:14:51.812Z,24.83
2017-05-20T05:15:52.134Z,24.96
2017-05-20T05:16:52.141Z,25.06
2017-05-20T05:17:52.153Z,25.25
2017-05-20T05:18:51.895Z,25.45
2017-05-20T05:19:52.221Z,25.5
2017-05-20T05:20:52.175Z,25.39
2017-05-20T05:21:52.230Z,25.25
2017-05-20T05:22:51.878Z,25.28
2017-05-20T05:23:52.248Z,25.33
2017-05-20T05:24:52.306Z,25.42
2017-05-20T05:25:51.602Z,25.5
2017-05-20T05:26:52.519Z,25.6
2017-05-20T05:27:52.279Z,25.83
2017-05-20T05:28:52.245Z,26.09
2017-05-20T05:29:51.629Z,26.36
2017-05-20T05:30:52.257Z,26.36
2017-05-20T05:31:51.951Z,26.13
2017-05-20T05:32:52.273Z,25.76
2017-05-20T05:33:52.335Z,25.67
2017-05-20T05:34:52.086Z,25.76
2017-05-20T05:35:52.302Z,26.01
2017-05-20T05:36:52.310Z,25.91
2017-05-20T05:37:52.004Z,25.73
2017-05-20T05:38:52.015Z,25.67
2017-05-20T05:39:52.024Z,25.47
2017-05-20T05:40:52.342Z,25.39
2017-05-20T05:41:52.359Z,25.36
2017-05-20T05:42:52.360Z,25.21
2017-05-20T05:43:51.748Z,25.18
2017-05-20T05:44:52.426Z,25.2
2017-05-20T05:45:52.076Z,25.27
2017-05-20T05:46:52.085Z,25.23
2017-05-20T05:47:51.782Z,25.23
2017-05-20T05:48:52.410Z,25.33
2017-05-20T05:49:52.417Z,25.25
2017-05-20T05:50:52.427Z,25.38
2017-05-20T05:51:52.123Z,25.88
2017-05-20T05:52:52.135Z,27.14
2017-05-20T05:53:52.246Z,28.04
2017-05-20T05:54:52.151Z,28.48
2017-05-20T05:55:52.209Z,28.85
2017-05-20T05:56:52.479Z,29.12
2017-05-20T05:57:51.918Z,29.42
2017-05-20T05:58:52.508Z,29.89
2017-05-20T05:59:52.509Z,29.97
2017-05-20T06:00:52.516Z,30.26
2017-05-20T06:01:52.523Z,30.35
2017-05-20T06:02:52.582Z,30.51
2017-05-20T06:03:52.557Z,30.51
2017-05-20T06:04:52.558Z,30.7
2017-05-20T06:05:52.566Z,30.92
2017-05-20T06:06:52.576Z,31.01
2017-05-20T06:07:52.590Z,30.97
2017-05-20T06:08:52.597Z,30.46
2017-05-20T06:09:52.606Z,30.2
2017-05-20T06:10:52.617Z,30.73
2017-05-20T06:11:52.629Z,31.01
2017-05-20T06:12:52.641Z,31.39
2017-05-20T06:13:52.647Z,31.48
2017-05-20T06:14:52.665Z,31.65
2017-05-20T06:15:52.358Z,31.8
2017-05-20T06:16:52.418Z,31.92
2017-05-20T06:17:52.693Z,31.91
2017-05-20T06:18:52.394Z,32.11
2017-05-20T06:19:52.398Z,32.11
2017-05-20T06:20:52.722Z,32.35
2017-05-20T06:21:52.786Z,32.4
2017-05-20T06:22:52.483Z,32.44
2017-05-20T06:23:52.444Z,32.23
2017-05-20T06:24:52.458Z,32.45
2017-05-20T06:25:52.523Z,32.45
2017-05-20T06:26:52.587Z,32.57
2017-05-20T06:27:52.490Z,32.52
2017-05-20T06:28:52.861Z,32.7
2017-05-20T06:29:52.825Z,32.69
2017-05-20T06:30:52.523Z,32.59
2017-05-20T06:31:52.843Z,32.57
2017-05-20T06:32:52.544Z,32.51
2017-05-20T06:33:52.556Z,32.63
2017-05-20T06:34:52.927Z,32.6
2017-05-20T06:35:52.579Z,32.74
2017-05-20T06:36:53.099Z,32.74
2017-05-20T06:37:52.654Z,33.03
2017-05-20T06:38:52.355Z,33.19
2017-05-20T06:39:52.934Z,33.04
2017-05-20T06:40:53.053Z,33.19
2017-05-20T06:41:52.646Z,33.14
2017-05-20T06:42:52.974Z,33.19
2017-05-20T06:43:52.984Z,33.39
2017-05-20T06:44:52.991Z,33.35
2017-05-20T06:45:53.002Z,33.45
2017-05-20T06:46:52.704Z,33.44
2017-05-20T06:47:52.722Z,33.45
2017-05-20T06:48:53.042Z,33.35
2017-05-20T06:49:53.055Z,33.37
2017-05-20T06:50:52.809Z,33.35
2017-05-20T06:51:52.764Z,33.35
2017-05-20T06:52:52.779Z,33.32
2017-05-20T06:53:52.849Z,33.11
2017-05-20T06:54:52.805Z,33
2017-05-20T06:55:53.123Z,33.34
2017-05-20T06:56:53.132Z,33.39
2017-05-20T06:57:53.198Z,33.39
2017-05-20T06:58:52.849Z,33.28
2017-05-20T06:59:53.171Z,33.26
2017-05-20T07:00:52.870Z,33.19
2017-05-20T07:01:52.932Z,33.11
2017-05-20T07:02:52.945Z,33.28
2017-05-20T07:03:53.221Z,33.35
2017-05-20T07:04:52.920Z,33.38
2017-05-20T07:05:53.242Z,33.38
2017-05-20T07:06:53.258Z,33.38
2017-05-20T07:07:52.956Z,33.34
2017-05-20T07:08:53.276Z,33.31
2017-05-20T07:09:52.977Z,33.45
2017-05-20T07:10:52.726Z,33.41
2017-05-20T07:11:53.002Z,33.51
2017-05-20T07:12:53.117Z,33.47
2017-05-20T07:13:53.034Z,33.42
2017-05-20T07:14:53.043Z,33.44
2017-05-20T07:15:53.098Z,33.44
2017-05-20T07:16:53.675Z,33.45
2017-05-20T07:17:53.077Z,33.5
2017-05-20T07:18:53.442Z,33.54
2017-05-20T07:19:53.411Z,33.54
2017-05-20T07:20:53.113Z,33.49
2017-05-20T07:21:53.117Z,33.54
2017-05-20T07:22:53.445Z,33.59
2017-05-20T07:23:53.458Z,33.57
2017-05-20T07:24:53.517Z,33.54
2017-05-20T07:25:53.170Z,33.34
2017-05-20T07:26:53.494Z,33.34
2017-05-20T07:27:53.197Z,33.41
2017-05-20T07:28:52.947Z,33.11
2017-05-20T07:29:52.960Z,33.19
2017-05-20T07:30:53.233Z,33.41
2017-05-20T07:31:53.553Z,32.44
2017-05-20T07:32:53.305Z,30.6
2017-05-20T07:33:53.576Z,29.04
2017-05-20T07:34:53.588Z,28.12
2017-05-20T07:35:53.602Z,27.81
2017-05-20T07:36:53.609Z,27.6
2017-05-20T07:37:53.313Z,27.62
2017-05-20T07:38:53.632Z,27.62
2017-05-20T07:39:53.648Z,27.72
2017-05-20T07:40:53.709Z,27.7
2017-05-20T07:41:53.710Z,27.69
2017-05-20T07:42:53.725Z,27.62
2017-05-20T07:43:53.057Z,27.69
2017-05-20T07:44:53.691Z,27.62
2017-05-20T07:45:53.704Z,27.85
2017-05-20T07:46:53.712Z,27.92
2017-05-20T07:47:53.776Z,27.87
2017-05-20T07:48:53.520Z,27.77
2017-05-20T07:49:53.738Z,27.79
2017-05-20T07:50:53.751Z,27.81
2017-05-20T07:51:53.444Z,27.87
2017-05-20T07:52:53.769Z,27.85
2017-05-20T07:53:53.827Z,27.82
2017-05-20T07:54:53.166Z,27.85
2017-05-20T07:55:53.481Z,27.79
2017-05-20T07:56:53.493Z,27.77
2017-05-20T07:57:53.816Z,27.84
2017-05-20T07:58:53.513Z,27.84
2017-05-20T07:59:53.568Z,27.87
2017-05-20T08:00:53.891Z,27.7
2017-05-20T08:01:53.539Z,27.65
2017-05-20T08:02:53.858Z,27.62
2017-05-20T08:03:53.868Z,27.66
2017-05-20T08:04:53.879Z,27.77
2017-05-20T08:05:53.571Z,27.78
2017-05-20T08:06:53.582Z,27.72
2017-05-20T08:07:53.592Z,27.67
2017-05-20T08:08:53.600Z,27.59
2017-05-20T08:09:53.608Z,27.5
2017-05-20T08:10:53.625Z,27.49
2017-05-20T08:11:53.989Z,27.54
2017-05-20T08:12:53.688Z,27.54
2017-05-20T08:13:53.956Z,27.4
2017-05-20T08:14:53.657Z,27.34
2017-05-20T08:15:53.974Z,27.43
2017-05-20T08:16:53.981Z,27.41
2017-05-20T08:17:53.682Z,27.39
2017-05-20T08:18:53.999Z,27.41
2017-05-20T08:19:53.698Z,27.47
2017-05-20T08:20:53.707Z,27.49
2017-05-20T08:21:53.716Z,27.41
2017-05-20T08:22:54.037Z,27.32
2017-05-20T08:23:53.731Z,27.41
2017-05-20T08:24:53.745Z,27.37
2017-05-20T08:25:54.114Z,27.34
2017-05-20T08:26:53.760Z,27.28
2017-05-20T08:27:53.821Z,27.18
2017-05-20T08:28:54.087Z,27.14
2017-05-20T08:29:53.478Z,27.12
2017-05-20T08:30:53.795Z,27.09
2017-05-20T08:31:53.803Z,27.12
2017-05-20T08:32:53.816Z,27.1
2017-05-20T08:33:53.871Z,27.02
2017-05-20T08:34:54.144Z,27.07
2017-05-20T08:35:54.154Z,26.95
2017-05-20T08:36:53.852Z,26.94
2017-05-20T08:37:54.167Z,26.87
2017-05-20T08:38:54.226Z,26.91
2017-05-20T08:39:54.185Z,26.99
2017-05-20T08:40:54.196Z,27.04
2017-05-20T08:41:53.889Z,26.94
2017-05-20T08:42:53.916Z,26.95
2017-05-20T08:43:53.916Z,26.92
2017-05-20T08:44:53.656Z,26.94
2017-05-20T08:45:53.977Z,27.02
2017-05-20T08:46:54.244Z,27.04
2017-05-20T08:47:54.258Z,26.97
2017-05-20T08:48:53.956Z,26.99
2017-05-20T08:49:53.956Z,27
2017-05-20T08:50:54.332Z,26.85
2017-05-20T08:51:53.978Z,26.94
2017-05-20T08:52:54.306Z,26.91
2017-05-20T08:53:53.997Z,26.88
2017-05-20T08:54:54.005Z,26.97
2017-05-20T08:55:54.115Z,27
2017-05-20T08:56:54.331Z,26.89
2017-05-20T08:57:54.037Z,26.92
2017-05-20T08:58:54.406Z,26.88
2017-05-20T08:59:54.364Z,26.88
2017-05-20T09:00:54.056Z,26.89
2017-05-20T09:01:54.374Z,26.81
2017-05-20T09:02:54.387Z,26.84
2017-05-20T09:03:54.391Z,26.81
2017-05-20T09:04:54.402Z,26.77
2017-05-20T09:05:53.787Z,26.76
2017-05-20T09:06:54.419Z,26.76
2017-05-20T09:07:54.428Z,26.72
2017-05-20T09:08:54.441Z,26.75
2017-05-20T09:09:54.457Z,26.7
2017-05-20T09:10:54.452Z,26.76
2017-05-20T09:11:54.461Z,26.75
2017-05-20T09:12:54.163Z,26.62
2017-05-20T09:13:54.480Z,26.75
2017-05-20T09:14:54.489Z,26.69
2017-05-20T09:15:54.498Z,26.76
2017-05-20T09:16:54.502Z,26.73
2017-05-20T09:17:54.518Z,26.67
2017-05-20T09:18:54.572Z,26.72
2017-05-20T09:19:54.535Z,26.66
2017-05-20T09:20:54.540Z,26.67
2017-05-20T09:21:54.545Z,26.65
2017-05-20T09:22:54.558Z,26.62
2017-05-20T09:23:54.106Z,26.51
2017-05-20T09:24:54.268Z,26.66
2017-05-20T09:25:54.319Z,26.67
2017-05-20T09:26:54.278Z,26.69
2017-05-20T09:27:53.976Z,26.87
2017-05-20T09:28:54.658Z,26.92
2017-05-20T09:29:54.304Z,26.97
2017-05-20T09:30:54.675Z,27.04
2017-05-20T09:31:54.633Z,27.03
2017-05-20T09:32:54.333Z,26.97
2017-05-20T09:33:54.650Z,26.87
2017-05-20T09:34:54.661Z,26.84
2017-05-20T09:35:54.671Z,26.87
2017-05-20T09:36:54.672Z,26.87
2017-05-20T09:37:54.423Z,26.84
2017-05-20T09:38:54.744Z,26.84
2017-05-20T09:39:54.389Z,26.82
2017-05-20T09:40:54.706Z,26.85
2017-05-20T09:41:54.719Z,26.81
2017-05-20T09:42:54.776Z,26.85
2017-05-20T09:43:54.425Z,26.75
2017-05-20T09:44:54.740Z,26.87
2017-05-20T09:45:54.801Z,26.81
2017-05-20T09:46:54.763Z,26.8
2017-05-20T09:47:54.823Z,26.84
2017-05-20T09:48:54.465Z,26.8
2017-05-20T09:49:54.524Z,26.85
2017-05-20T09:50:54.789Z,26.94
2017-05-20T09:51:54.848Z,26.81
2017-05-20T09:52:54.833Z,26.82
2017-05-20T09:53:54.506Z,26.82
2017-05-20T09:54:54.875Z,26.81
2017-05-20T09:55:54.521Z,26.84
2017-05-20T09:56:54.222Z,26.84
2017-05-20T09:57:54.592Z,26.85
2017-05-20T09:58:54.861Z,26.87
2017-05-20T09:59:54.608Z,26.82
2017-05-20T10:00:54.614Z,26.82
2017-05-20T10:01:54.933Z,26.81
2017-05-20T10:02:54.635Z,26.8
2017-05-20T10:03:54.638Z,26.72
2017-05-20T10:04:54.648Z,26.81
2017-05-20T10:05:54.606Z,26.77
2017-05-20T10:06:54.614Z,26.8
2017-05-20T10:07:54.622Z,26.91
2017-05-20T10:08:54.633Z,26.89
2017-05-20T10:09:55.001Z,26.89
2017-05-20T10:10:54.698Z,26.99
2017-05-20T10:11:54.968Z,26.95
2017-05-20T10:12:54.666Z,27.04
2017-05-20T10:13:54.683Z,27.02
2017-05-20T10:14:54.996Z,26.94
2017-05-20T10:15:55.051Z,26.99
2017-05-20T10:16:54.700Z,26.97
2017-05-20T10:17:54.759Z,27.1
2017-05-20T10:18:55.028Z,27.03
2017-05-20T10:19:54.727Z,26.87
2017-05-20T10:20:55.042Z,26.91
2017-05-20T10:21:55.102Z,26.85
2017-05-20T10:22:55.064Z,26.88
2017-05-20T10:23:55.067Z,26.82
2017-05-20T10:24:54.769Z,26.81
2017-05-20T10:25:54.778Z,26.84
2017-05-20T10:26:55.098Z,26.75
2017-05-20T10:27:54.793Z,26.84
2017-05-20T10:28:54.807Z,26.8
2017-05-20T10:29:55.122Z,26.8
2017-05-20T10:30:54.556Z,26.81
2017-05-20T10:31:55.137Z,26.82
2017-05-20T10:32:55.196Z,26.75
2017-05-20T10:33:55.157Z,26.81
2017-05-20T10:34:55.169Z,26.69
2017-05-20T10:35:54.859Z,26.7
2017-05-20T10:36:54.872Z,26.69
2017-05-20T10:37:54.879Z,26.67
2017-05-20T10:38:55.197Z,26.72
2017-05-20T10:39:55.211Z,26.63
2017-05-20T10:40:54.904Z,26.66
2017-05-20T10:41:54.911Z,26.62
2017-05-20T10:42:54.918Z,26.62
2017-05-20T10:43:54.926Z,26.67
2017-05-20T10:44:54.936Z,26.72
2017-05-20T10:45:54.635Z,26.73
2017-05-20T10:46:54.947Z,26.75
2017-05-20T10:47:55.323Z,26.69
2017-05-20T10:48:55.284Z,26.65
2017-05-20T10:49:55.029Z,26.67
2017-05-20T10:50:54.986Z,26.63
2017-05-20T10:51:54.996Z,26.67
2017-05-20T10:52:55.417Z,26.63
2017-05-20T10:53:55.017Z,26.73
2017-05-20T10:54:55.116Z,26.76
2017-05-20T10:55:55.343Z,26.8
2017-05-20T10:56:55.039Z,26.66
2017-05-20T10:57:55.093Z,26.76
2017-05-20T10:58:54.924Z,26.63
2017-05-20T10:59:55.064Z,26.72
2017-05-20T11:00:55.080Z,26.69
2017-05-20T11:01:55.080Z,26.7
2017-05-20T11:02:55.094Z,26.67
2017-05-20T11:03:55.411Z,26.65
2017-05-20T11:04:54.798Z,26.66
2017-05-20T11:05:54.804Z,26.7
2017-05-20T11:06:54.810Z,26.63
2017-05-20T11:07:54.876Z,26.65
2017-05-20T11:08:55.140Z,26.7
2017-05-20T11:09:55.148Z,26.69
2017-05-20T11:10:55.476Z,26.52
2017-05-20T11:11:55.166Z,26.52
2017-05-20T11:12:54.914Z,26.51
2017-05-20T11:13:55.494Z,26.43
2017-05-20T11:14:55.197Z,26.39
2017-05-20T11:15:54.892Z,26.43
2017-05-20T11:16:55.527Z,26.44
2017-05-20T11:17:55.532Z,26.47
2017-05-20T11:18:55.227Z,26.36
2017-05-20T11:19:55.032Z,26.51
2017-05-20T11:20:55.246Z,26.48
2017-05-20T11:21:55.254Z,26.5
2017-05-20T11:22:54.951Z,26.55
2017-05-20T11:23:55.638Z,26.63
2017-05-20T11:24:55.281Z,26.55
2017-05-20T11:25:55.286Z,26.52
2017-05-20T11:26:55.614Z,26.55
2017-05-20T11:27:55.357Z,26.52
2017-05-20T11:28:55.315Z,26.58
2017-05-20T11:29:55.645Z,26.39
2017-05-20T11:30:55.772Z,26.5
2017-05-20T11:31:55.339Z,26.4
2017-05-20T11:32:55.659Z,26.43
2017-05-20T11:33:55.669Z,26.35
2017-05-20T11:34:55.681Z,26.48
2017-05-20T11:35:55.386Z,26.43
2017-05-20T11:36:55.383Z,26.43
2017-05-20T11:37:55.396Z,26.39
2017-05-20T11:38:55.403Z,26.51
2017-05-20T11:39:55.102Z,26.43
2017-05-20T11:40:55.730Z,26.45
2017-05-20T11:41:55.426Z,26.51
2017-05-20T11:42:55.125Z,26.51
2017-05-20T11:43:55.446Z,26.44
2017-05-20T11:44:55.768Z,26.45
2017-05-20T11:45:55.817Z,26.51
2017-05-20T11:46:55.472Z,26.55
2017-05-20T11:47:55.173Z,26.55
2017-05-20T11:48:55.535Z,26.54
2017-05-20T11:49:55.495Z,26.48
2017-05-20T11:50:55.602Z,26.39
2017-05-20T11:51:55.513Z,26.48
2017-05-20T11:52:55.834Z,26.4
2017-05-20T11:53:55.579Z,26.48
2017-05-20T11:54:55.587Z,26.43
2017-05-20T11:55:55.858Z,26.39
2017-05-20T11:56:55.869Z,26.37
2017-05-20T11:57:55.615Z,26.33
2017-05-20T11:58:55.885Z,26.33
2017-05-20T11:59:55.321Z,26.39
2017-05-20T12:00:55.585Z,26.37
2017-05-20T12:01:55.916Z,26.43
2017-05-20T12:02:55.918Z,26.39
2017-05-20T12:03:55.354Z,26.39
2017-05-20T12:04:55.621Z,26.36
2017-05-20T12:05:55.635Z,26.33
2017-05-20T12:06:55.332Z,26.37
2017-05-20T12:07:55.655Z,26.33
2017-05-20T12:08:55.352Z,26.25
2017-05-20T12:09:55.669Z,26.33
2017-05-20T12:10:55.367Z,26.26
2017-05-20T12:11:55.999Z,26.18
2017-05-20T12:12:56.007Z,26.23
2017-05-20T12:13:55.702Z,26.15
2017-05-20T12:14:55.815Z,26.2
2017-05-20T12:15:55.411Z,26.25
2017-05-20T12:16:55.468Z,26.15
2017-05-20T12:17:56.053Z,26.13
2017-05-20T12:18:55.745Z,26.13
2017-05-20T12:19:55.804Z,26.29
2017-05-20T12:20:55.767Z,26.26
2017-05-20T12:21:55.777Z,26.33
2017-05-20T12:22:56.091Z,26.36
2017-05-20T12:23:56.099Z,26.4
2017-05-20T12:24:55.799Z,26.44
2017-05-20T12:25:55.859Z,26.43
2017-05-20T12:26:55.504Z,26.39
2017-05-20T12:27:55.826Z,26.51
2017-05-20T12:28:55.843Z,26.39
2017-05-20T12:29:55.841Z,26.4
2017-05-20T12:30:56.161Z,26.4
2017-05-20T12:31:55.549Z,26.47
2017-05-20T12:32:55.864Z,26.4
2017-05-20T12:33:56.185Z,26.4
2017-05-20T12:34:55.576Z,26.4
2017-05-20T12:35:55.893Z,26.26
2017-05-20T12:36:55.590Z,26.21
2017-05-20T12:37:55.908Z,26.25
2017-05-20T12:38:55.660Z,26.21
2017-05-20T12:39:56.243Z,26.2
2017-05-20T12:40:56.246Z,26.07
2017-05-20T12:41:55.995Z,26.18
2017-05-20T12:42:55.642Z,26.12
2017-05-20T12:43:55.653Z,26.09
2017-05-20T12:44:56.333Z,26.17
2017-05-20T12:45:55.979Z,26.21
2017-05-20T12:46:55.991Z,26.18
2017-05-20T12:47:56.002Z,26.17
2017-05-20T12:48:55.756Z,26.13
2017-05-20T12:49:56.017Z,26.15
2017-05-20T12:50:56.338Z,26.17
2017-05-20T12:51:56.083Z,26.18
2017-05-20T12:52:56.093Z,26.17
2017-05-20T12:53:56.056Z,26.15
2017-05-20T12:54:56.056Z,26.21
2017-05-20T12:55:55.759Z,26.15
2017-05-20T12:56:55.766Z,26.15